Time;durP1;ratioP1;P1;durP2;ratioP2;P2;SDS_P1;SDS_P2;PMS_P1;PMS_P2;Temp;Humidity;BMP_temperature;BMP_pressure;BME280_temperature;BME280_humidity;BME280_pressure;Samples;Min_cycle;Max_cycle;Signal;HPM_P1;HPM_P2
2022/09/24 05:59:17;;;;;;;8.40;6.07;;;;;;;;;;10618638;27;20176;-84
2022/09/24 06:04:18;;;;;;;6.78;5.38;;;;;;;;;;10607327;28;20023;-85
2022/09/24 06:09:20;;;;;;;;;;;;;;;;;;10582582;28;20027;-85
2022/09/24 06:14:34;;;;;;;8.38;6.57;;;;;;;;;;10583377;28;19938;-85
2022/09/24 06:19:36;;;;;;;8.73;6.38;;;;;;;;;;10584374;28;20032;-85
2022/09/24 06:24:37;;;;;;;8.60;6.63;;;;;;;;;;10582385;28;20064;-84
2022/09/24 06:29:44;;;;;;;8.05;6.38;;;;;;;;;;10579568;28;20366;-84
2022/09/24 06:34:47;;;;;;;5.13;4.50;;;;;;;;;;10580892;28;20022;-85
2022/09/24 06:39:48;;;;;;;9.60;7.63;;;;;;;;;;10579387;28;20024;-84
2022/09/24 06:44:50;;;;;;;7.50;6.70;;;;;;;;;;10591026;27;20109;-85
2022/09/24 06:49:51;;;;;;;6.45;5.05;;;;;;;;;;10611775;27;20065;-85
2022/09/24 06:54:54;;;;;;;5.65;4.65;;;;;;;;;;10617388;27;20058;-85
2022/09/24 06:59:55;;;;;;;6.97;5.95;;;;;;;;;;10603515;28;20516;-85
2022/09/24 07:05:03;;;;;;;5.00;3.65;;;;;;;;;;10597626;28;20111;-85
2022/09/24 07:10:27;;;;;;;5.97;4.88;;;;;;;;;;10580755;28;20338;-85
2022/09/24 07:15:29;;;;;;;7.38;5.72;;;;;;;;;;10559999;28;20032;-85
2022/09/24 07:20:35;;;;;;;7.70;6.05;;;;;;;;;;10570299;28;20051;-84
2022/09/24 07:25:36;;;;;;;7.35;6.15;;;;;;;;;;10570479;28;20024;-82
2022/09/24 07:30:38;;;;;;;10.20;6.95;;;;;;;;;;10562255;28;20056;-85
2022/09/24 07:35:39;;;;;;;9.82;8.25;;;;;;;;;;10562563;28;20078;-82
2022/09/24 07:40:41;;;;;;;14.75;11.27;;;;;;;;;;10566869;28;20438;-84
2022/09/24 07:45:46;;;;;;;11.07;8.77;;;;;;;;;;10564269;28;20020;-83
2022/09/24 07:50:48;;;;;;;11.75;9.30;;;;;;;;;;10565173;28;20027;-83
2022/09/24 07:56:16;;;;;;;11.95;9.77;;;;;;;;;;10552905;28;20055;-84
2022/09/24 08:01:27;;;;;;;11.80;9.70;;;;;;;;;;10549727;28;20132;-84
2022/09/24 08:06:29;;;;;;;13.65;10.27;;;;;;;;;;10561936;28;20024;-83
2022/09/24 08:11:48;;;;;;;8.85;6.90;;;;;;;;;;10560843;28;20071;-83
2022/09/24 08:22:33;;;;;;;8.95;6.10;;;;;;;;;;10566589;28;19904;-84
2022/09/24 08:27:36;;;;;;;10.38;7.53;;;;;;;;;;10562346;28;20028;-83
2022/09/24 08:32:37;;;;;;;8.15;6.53;;;;;;;;;;10559924;28;20408;-83
2022/09/24 08:37:42;;;;;;;10.48;8.88;;;;;;;;;;10559271;28;20054;-85
2022/09/24 08:42:50;;;;;;;9.55;7.90;;;;;;;;;;10554878;28;20095;-83
2022/09/24 09:05:29;;;;;;;9.00;7.83;;;;;;;;;;10558690;28;20091;-85
2022/09/24 09:10:37;;;;;;;9.82;8.63;;;;;;;;;;10530041;28;20055;-84
2022/09/24 09:15:46;;;;;;;10.70;8.07;;;;;;;;;;10538977;28;20047;-85
2022/09/24 09:20:48;;;;;;;11.50;9.60;;;;;;;;;;10515162;28;20036;-84
2022/09/24 09:26:06;;;;;;;12.15;8.98;;;;;;;;;;10521977;28;20028;-84
2022/09/24 09:31:08;;;;;;;10.40;7.93;;;;;;;;;;10520113;28;20072;-83
2022/09/24 09:36:37;;;;;;;8.63;7.07;;;;;;;;;;10519116;28;20051;-83
2022/09/24 09:41:45;;;;;;;11.75;9.38;;;;;;;;;;10515861;28;20490;-82
2022/09/24 09:46:56;;;;;;;9.75;8.00;;;;;;;;;;10515225;28;20413;-82
2022/09/24 09:52:02;;;;;;;;;;;;;;;;;;10514170;28;20032;-83
2022/09/24 09:57:03;;;;;;;7.95;6.97;;;;;;;;;;10539747;28;19961;-83
2022/09/24 10:02:10;;;;;;;10.13;7.50;;;;;;;;;;10546561;28;20032;-82
2022/09/24 10:07:15;;;;;;;9.43;7.18;;;;;;;;;;10557613;28;20024;-81
2022/09/24 10:12:21;;;;;;;9.95;7.85;;;;;;;;;;10544584;28;20035;-83
2022/09/24 10:17:27;;;;;;;6.57;5.80;;;;;;;;;;10552424;28;20470;-83
2022/09/24 10:22:28;;;;;;;7.20;6.30;;;;;;;;;;10540962;28;20543;-83
2022/09/24 10:27:31;;;;;;;8.88;7.55;;;;;;;;;;10543608;28;20085;-84
2022/09/24 10:38:18;;;;;;;7.97;7.05;;;;;;;;;;10564514;28;20028;-83
2022/09/24 10:43:23;;;;;;;11.45;8.40;;;;;;;;;;10549184;28;20082;-83
2022/09/24 10:48:43;;;;;;;19.70;15.23;;;;;;;;;;10546177;28;20119;-82
2022/09/24 10:54:03;;;;;;;9.40;7.18;;;;;;;;;;10546228;28;20363;-82
2022/09/24 10:59:15;;;;;;;7.90;7.05;;;;;;;;;;10570152;28;20024;-82
2022/09/24 11:31:54;;;;;;;8.02;6.90;;;;;;;;;;10566161;28;20092;-83
2022/09/24 11:37:10;;;;;;;8.65;7.07;;;;;;;;;;10567688;28;20107;-81
2022/09/24 11:42:30;;;;;;;11.13;9.63;;;;;;;;;;10572374;28;20028;-81
2022/09/24 11:47:47;;;;;;;8.27;6.80;;;;;;;;;;10571459;28;20067;-81
2022/09/24 11:52:52;;;;;;;7.40;6.05;;;;;;;;;;10566369;28;20218;-82
2022/09/24 11:57:57;;;;;;;8.68;5.50;;;;;;;;;;10561643;28;20039;-82
2022/09/24 12:03:05;;;;;;;10.27;6.90;;;;;;;;;;10562222;28;20478;-79
2022/09/24 12:08:13;;;;;;;8.77;6.40;;;;;;;;;;10569179;28;20066;-83
2022/09/24 12:13:17;;;;;;;15.18;10.82;;;;;;;;;;10565624;28;20149;-84
2022/09/24 12:18:22;;;;;;;7.95;6.82;;;;;;;;;;10554549;28;20074;-84
2022/09/24 12:23:28;;;;;;;8.48;6.00;;;;;;;;;;10554879;28;20471;-84
2022/09/24 12:33:55;;;;;;;12.00;8.32;;;;;;;;;;10565793;28;20055;-84
2022/09/24 12:39:02;;;;;;;7.57;6.72;;;;;;;;;;10560351;28;20062;-84
2022/09/24 12:44:06;;;;;;;9.50;8.45;;;;;;;;;;10559639;28;20036;-83
2022/09/24 12:49:26;;;;;;;7.82;6.85;;;;;;;;;;10556317;28;20071;-83
2022/09/24 12:54:29;;;;;;;8.03;6.17;;;;;;;;;;10555795;28;20036;-84
2022/09/24 12:59:30;;;;;;;9.63;8.45;;;;;;;;;;10552720;28;20036;-83
2022/09/24 13:04:31;;;;;;;9.15;7.40;;;;;;;;;;10558490;28;20087;-83
2022/09/24 13:09:37;;;;;;;6.05;5.40;;;;;;;;;;10554208;28;20390;-83
2022/09/24 13:14:40;;;;;;;9.00;8.10;;;;;;;;;;10553017;28;20032;-83
2022/09/24 13:19:43;;;;;;;10.13;7.82;;;;;;;;;;10568058;28;20036;-83
2022/09/24 13:24:48;;;;;;;7.38;6.00;;;;;;;;;;10558637;28;20040;-83
2022/09/24 13:30:02;;;;;;;9.23;7.57;;;;;;;;;;10554035;28;20052;-83
2022/09/24 13:35:05;;;;;;;6.97;5.68;;;;;;;;;;10559791;28;20036;-84
2022/09/24 13:40:15;;;;;;;7.28;6.57;;;;;;;;;;10550291;28;20091;-83
2022/09/24 13:45:18;;;;;;;6.72;5.65;;;;;;;;;;10554330;28;20035;-83
2022/09/24 13:50:24;;;;;;;7.00;6.28;;;;;;;;;;10553625;28;20501;-84
2022/09/24 13:55:29;;;;;;;6.15;5.50;;;;;;;;;;10571092;28;20139;-83
2022/09/24 14:00:37;;;;;;;12.85;9.30;;;;;;;;;;10578516;28;20027;-82
2022/09/24 14:05:38;;;;;;;9.55;7.50;;;;;;;;;;10772061;22;20115;-82
2022/09/24 14:10:40;;;;;;;7.78;6.97;;;;;;;;;;10606914;28;20062;-86
2022/09/24 14:15:55;;;;;;;6.88;6.18;;;;;;;;;;10600512;28;20099;-83
2022/09/24 14:21:15;;;;;;;8.50;7.32;;;;;;;;;;10616665;28;20031;-83
2022/09/24 14:26:16;;;;;;;;;;;;;;;;;;10597519;28;20043;-82
2022/09/24 14:31:19;;;;;;;8.88;7.47;;;;;;;;;;10604848;28;19904;-81
2022/09/24 14:36:27;;;;;;;6.30;5.40;;;;;;;;;;10626533;28;20045;-83
2022/09/24 14:41:32;;;;;;;6.57;5.70;;;;;;;;;;10609884;28;20398;-83
2022/09/24 14:46:36;;;;;;;6.75;6.00;;;;;;;;;;10609666;28;20070;-82
2022/09/24 14:51:37;;;;;;;8.35;6.60;;;;;;;;;;10606811;28;20066;-82
2022/09/24 14:56:38;;;;;;;5.82;5.25;;;;;;;;;;10608071;28;20028;-83
2022/09/24 15:01:39;;;;;;;8.57;7.47;;;;;;;;;;10598080;28;20047;-84
2022/09/24 15:06:45;;;;;;;5.65;4.93;;;;;;;;;;10582105;28;20047;-82
2022/09/24 15:11:47;;;;;;;5.68;4.97;;;;;;;;;;10595976;28;20035;-82
2022/09/24 15:16:49;;;;;;;5.20;4.65;;;;;;;;;;10592117;28;20036;-83
2022/09/24 15:21:51;;;;;;;6.38;4.68;;;;;;;;;;10590597;28;20036;-83
2022/09/24 15:27:03;;;;;;;7.72;6.22;;;;;;;;;;10588389;28;20101;-82
2022/09/24 15:32:11;;;;;;;6.47;5.35;;;;;;;;;;10589549;28;20031;-82
2022/09/24 15:37:15;;;;;;;6.25;5.25;;;;;;;;;;10610774;28;20057;-83
2022/09/24 15:42:16;;;;;;;6.20;5.40;;;;;;;;;;10589286;28;20035;-82
2022/09/24 15:47:18;;;;;;;8.93;7.95;;;;;;;;;;10609152;28;20032;-82
2022/09/24 15:52:23;;;;;;;5.68;4.97;;;;;;;;;;10588720;28;20035;-83
2022/09/24 15:57:27;;;;;;;5.85;5.18;;;;;;;;;;10588359;28;20043;-84
2022/09/24 16:02:32;;;;;;;5.32;4.80;;;;;;;;;;10591151;28;20067;-83
2022/09/24 16:07:33;;;;;;;5.40;4.70;;;;;;;;;;10590479;28;20130;-83
2022/09/24 16:12:34;;;;;;;9.75;8.75;;;;;;;;;;10592306;28;20038;-83
2022/09/24 16:17:37;;;;;;;8.57;7.47;;;;;;;;;;10588711;28;20130;-83
2022/09/24 16:22:38;;;;;;;9.95;8.55;;;;;;;;;;10585097;28;20036;-84
2022/09/24 16:27:39;;;;;;;6.47;5.50;;;;;;;;;;10585294;28;20416;-83
2022/09/24 16:32:40;;;;;;;6.60;5.88;;;;;;;;;;10608143;28;20102;-82
2022/09/24 16:37:42;;;;;;;7.68;6.88;;;;;;;;;;10608269;28;20039;-82
2022/09/24 16:42:44;;;;;;;8.55;7.65;;;;;;;;;;10592421;28;20027;-82
2022/09/24 16:47:47;;;;;;;6.03;5.32;;;;;;;;;;10608666;28;20035;-82
2022/09/24 16:52:48;;;;;;;6.55;5.72;;;;;;;;;;10608128;28;20058;-82
2022/09/24 16:57:52;;;;;;;5.90;5.07;;;;;;;;;;10600683;28;20042;-82
2022/09/24 17:02:54;;;;;;;10.98;7.65;;;;;;;;;;10587815;28;20044;-83
2022/09/24 17:07:55;;;;;;;6.68;5.63;;;;;;;;;;10566457;28;20088;-82
2022/09/24 17:12:56;;;;;;;8.00;5.93;;;;;;;;;;10563533;28;20057;-83
2022/09/24 17:17:58;;;;;;;6.97;6.28;;;;;;;;;;10582646;28;20057;-83
2022/09/24 17:23:00;;;;;;;6.75;5.97;;;;;;;;;;10581542;28;20401;-82
2022/09/24 17:28:02;;;;;;;9.50;8.27;;;;;;;;;;10583367;28;20507;-82
2022/09/24 17:33:03;;;;;;;6.40;5.70;;;;;;;;;;10581403;28;20031;-83
2022/09/24 17:38:04;;;;;;;8.32;6.82;;;;;;;;;;10581141;28;20032;-82
2022/09/24 17:43:12;;;;;;;7.55;6.18;;;;;;;;;;10586592;28;20040;-82
2022/09/24 17:48:14;;;;;;;11.00;9.52;;;;;;;;;;10602983;28;20043;-83
2022/09/24 17:53:15;;;;;;;8.05;6.85;;;;;;;;;;10579824;28;20138;-82
2022/09/24 17:58:16;;;;;;;8.80;7.68;;;;;;;;;;10581543;28;20031;-82
2022/09/24 18:03:17;;;;;;;12.30;9.02;;;;;;;;;;10586433;28;20377;-82
2022/09/24 18:08:19;;;;;;;6.13;5.43;;;;;;;;;;10593351;28;20063;-82
2022/09/24 18:13:20;;;;;;;6.18;5.07;;;;;;;;;;10582630;28;20099;-82
2022/09/24 18:18:21;;;;;;;7.50;6.70;;;;;;;;;;10582647;28;20034;-82
2022/09/24 18:23:22;;;;;;;7.07;6.03;;;;;;;;;;10579732;28;20040;-82
2022/09/24 18:28:23;;;;;;;6.65;5.95;;;;;;;;;;10581460;28;20042;-83
2022/09/24 18:33:24;;;;;;;5.13;4.60;;;;;;;;;;10582979;28;20036;-83
2022/09/24 18:38:25;;;;;;;6.35;5.10;;;;;;;;;;10584271;28;20034;-83
2022/09/24 18:43:26;;;;;;;8.80;7.05;;;;;;;;;;10602247;28;20027;-82
2022/09/24 18:48:27;;;;;;;6.25;5.30;;;;;;;;;;10584059;28;20129;-82
2022/09/24 18:53:32;;;;;;;7.65;6.63;;;;;;;;;;10586114;28;20476;-83
2022/09/24 18:58:33;;;;;;;5.50;4.75;;;;;;;;;;10583837;28;20123;-82
2022/09/24 19:03:35;;;;;;;4.65;4.20;;;;;;;;;;10589618;28;20098;-82
2022/09/24 19:08:36;;;;;;;5.25;4.18;;;;;;;;;;10589756;28;20088;-82
2022/09/24 19:13:37;;;;;;;6.38;5.53;;;;;;;;;;10590726;28;20051;-82
2022/09/24 19:18:39;;;;;;;7.15;6.28;;;;;;;;;;10592305;28;20043;-83
2022/09/24 19:23:41;;;;;;;8.85;6.65;;;;;;;;;;10594471;28;20036;-83
